createdAt,value
2018-09-12T00:01:37.855Z,2.33
2018-09-12T00:04:14.363Z,2.90
2018-09-12T00:06:51.163Z,2.90
2018-09-12T00:09:27.776Z,2.70
2018-09-12T00:12:04.309Z,3.10
2018-09-12T00:14:40.679Z,2.60
2018-09-12T00:17:17.038Z,2.93
2018-09-12T00:19:53.488Z,2.20
2018-09-12T00:22:30.021Z,2.43
2018-09-12T00:25:06.886Z,2.73
2018-09-12T00:27:43.238Z,2.53
2018-09-12T00:30:19.656Z,3.07
2018-09-12T00:32:56.201Z,2.27
2018-09-12T00:35:32.651Z,2.30
2018-09-12T00:38:09.093Z,2.10
2018-09-12T00:40:45.490Z,2.80
2018-09-12T00:43:21.944Z,2.07
2018-09-12T00:45:58.409Z,2.63
2018-09-12T00:48:34.922Z,2.37
2018-09-12T00:51:11.243Z,2.13
2018-09-12T00:53:47.736Z,2.33
2018-09-12T00:56:24.269Z,2.10
2018-09-12T00:59:00.690Z,2.53
2018-09-12T01:01:37.048Z,2.00
2018-09-12T01:04:13.345Z,2.17
2018-09-12T01:06:50.007Z,2.70
2018-09-12T01:09:26.286Z,2.30
2018-09-12T01:12:02.763Z,1.93
2018-09-12T01:14:39.088Z,2.50
2018-09-12T01:17:15.529Z,3.10
2018-09-12T01:19:52.022Z,2.80
2018-09-12T01:22:28.453Z,2.57
2018-09-12T01:25:04.874Z,3.17
2018-09-12T01:27:41.308Z,2.80
2018-09-12T01:30:24.367Z,2.50
2018-09-12T01:33:00.664Z,3.13
2018-09-12T01:35:37.156Z,2.40
2018-09-12T01:38:13.468Z,2.60
2018-09-12T01:40:50.017Z,2.80
2018-09-12T01:43:26.351Z,2.60
2018-09-12T01:46:02.760Z,3.20
2018-09-12T01:48:39.113Z,2.20
2018-09-12T01:51:15.654Z,2.60
2018-09-12T01:53:51.921Z,2.70
2018-09-12T01:56:28.436Z,2.80
2018-09-12T01:59:04.830Z,2.40
2018-09-12T02:01:41.555Z,2.80
2018-09-12T02:04:17.985Z,3.00
2018-09-12T02:06:54.510Z,2.53
2018-09-12T02:09:31.235Z,3.10
2018-09-12T02:12:08.083Z,2.53
2018-09-12T02:14:44.535Z,2.70
2018-09-12T02:17:21.003Z,2.60
2018-09-12T02:19:57.506Z,2.67
2018-09-12T02:22:34.620Z,3.00
2018-09-12T02:25:11.243Z,2.93
2018-09-12T02:27:47.692Z,2.47
2018-09-12T02:30:24.091Z,3.00
2018-09-12T02:33:00.559Z,2.80
2018-09-12T02:35:41.129Z,2.63
2018-09-12T02:38:17.346Z,2.37
2018-09-12T02:40:53.852Z,3.20
2018-09-12T02:43:30.387Z,2.47
2018-09-12T02:46:07.038Z,2.20
2018-09-12T02:48:43.564Z,3.10
2018-09-12T02:51:19.965Z,2.93
2018-09-12T02:53:56.857Z,2.87
2018-09-12T02:56:33.404Z,2.60
2018-09-12T02:59:09.804Z,2.70
2018-09-12T03:01:46.349Z,2.87
2018-09-12T03:04:22.723Z,2.83
2018-09-12T03:06:59.218Z,2.80
2018-09-12T03:09:35.722Z,2.63
2018-09-12T03:12:12.344Z,2.87
2018-09-12T03:14:49.332Z,2.57
2018-09-12T03:17:25.627Z,2.70
2018-09-12T03:20:02.076Z,2.87
2018-09-12T03:22:38.572Z,2.83
2018-09-12T03:25:15.015Z,2.90
2018-09-12T03:27:51.539Z,2.70
2018-09-12T03:30:28.081Z,3.37
2018-09-12T03:33:04.618Z,2.60
2018-09-12T03:35:41.106Z,3.50
2018-09-12T03:38:17.599Z,2.90
2018-09-12T03:40:54.003Z,3.17
2018-09-12T03:43:30.495Z,3.27
2018-09-12T03:46:06.837Z,3.13
2018-09-12T03:48:43.133Z,3.00
2018-09-12T03:51:19.609Z,2.83
2018-09-12T03:53:55.979Z,3.07
2018-09-12T03:56:32.830Z,2.60
2018-09-12T03:59:09.177Z,2.63
2018-09-12T04:01:45.617Z,2.67
2018-09-12T04:04:21.904Z,3.27
2018-09-12T04:06:58.495Z,3.00
2018-09-12T04:09:34.822Z,3.20
2018-09-12T04:12:11.263Z,2.60
2018-09-12T04:14:47.710Z,3.30
2018-09-12T04:17:28.172Z,2.90
2018-09-12T04:20:06.056Z,2.70
2018-09-12T04:22:42.496Z,3.27
2018-09-12T04:25:18.940Z,2.60
2018-09-12T04:27:55.267Z,2.30
2018-09-12T04:30:31.743Z,3.00
2018-09-12T04:33:09.025Z,3.10
2018-09-12T04:35:45.518Z,3.63
2018-09-12T04:38:21.968Z,3.00
2018-09-12T04:40:58.596Z,3.00
2018-09-12T04:43:35.159Z,3.70
2018-09-12T04:46:11.658Z,2.77
2018-09-12T04:48:48.410Z,2.50
2018-09-12T04:51:24.940Z,3.00
2018-09-12T04:54:01.400Z,3.20
2018-09-12T04:56:38.537Z,3.83
2018-09-12T04:59:15.122Z,3.40
2018-09-12T05:01:51.602Z,3.43
2018-09-12T05:04:27.903Z,4.00
2018-09-12T05:07:04.270Z,2.90
2018-09-12T05:09:40.736Z,3.23
2018-09-12T05:12:17.218Z,3.00
2018-09-12T05:14:53.691Z,3.43
2018-09-12T05:17:30.159Z,3.40
2018-09-12T05:20:06.704Z,3.30
2018-09-12T05:22:43.167Z,3.10
2018-09-12T05:25:19.604Z,3.23
2018-09-12T05:27:56.088Z,3.10
2018-09-12T05:30:32.326Z,3.50
2018-09-12T05:33:08.954Z,3.30
2018-09-12T05:35:45.274Z,3.20
2018-09-12T05:38:21.762Z,3.57
2018-09-12T05:40:59.646Z,3.50
2018-09-12T05:43:36.935Z,3.57
2018-09-12T05:46:13.944Z,3.50
2018-09-12T05:48:50.412Z,3.80
2018-09-12T05:51:26.671Z,3.20
2018-09-12T05:54:03.120Z,3.47
2018-09-12T05:56:39.438Z,3.87
2018-09-12T05:59:15.882Z,3.00
2018-09-12T06:01:52.288Z,4.20
2018-09-12T06:04:28.774Z,3.50
2018-09-12T06:07:05.567Z,4.00
2018-09-12T06:09:41.910Z,3.60
2018-09-12T06:12:18.358Z,4.17
2018-09-12T06:14:54.854Z,3.97
2018-09-12T06:17:31.283Z,3.50
2018-09-12T06:20:09.727Z,3.87
2018-09-12T06:22:46.136Z,3.83
2018-09-12T06:25:22.714Z,4.00
2018-09-12T06:27:59.276Z,3.80
2018-09-12T06:30:35.705Z,4.20
2018-09-12T06:33:12.184Z,3.97
2018-09-12T06:35:48.614Z,3.23
2018-09-12T06:38:24.920Z,4.10
2018-09-12T06:41:01.362Z,4.57
2018-09-12T06:43:37.813Z,3.57
2018-09-12T06:46:14.276Z,3.63
2018-09-12T06:48:50.690Z,4.10
2018-09-12T06:51:27.094Z,4.30
2018-09-12T06:54:03.646Z,4.83
2018-09-12T06:56:40.219Z,4.00
2018-09-12T06:59:16.662Z,3.83
2018-09-12T07:01:52.918Z,3.90
2018-09-12T07:04:29.241Z,4.00
2018-09-12T07:07:05.877Z,3.97
2018-09-12T07:09:42.380Z,4.20
2018-09-12T07:12:18.834Z,3.33
2018-09-12T07:14:55.233Z,3.47
2018-09-12T07:17:31.686Z,3.90
2018-09-12T07:20:08.147Z,3.70
2018-09-12T07:22:44.491Z,3.63
2018-09-12T07:25:21.065Z,3.90
2018-09-12T07:27:57.523Z,4.90
2018-09-12T07:30:34.055Z,3.93
2018-09-12T07:33:10.391Z,3.80
2018-09-12T07:35:46.866Z,3.80
2018-09-12T07:38:23.309Z,3.57
2018-09-12T07:40:59.803Z,3.80
2018-09-12T07:43:36.252Z,4.23
2018-09-12T07:46:12.606Z,3.80
2018-09-12T07:48:49.050Z,4.50
2018-09-12T07:51:25.542Z,4.20
2018-09-12T07:54:01.995Z,3.93
2018-09-12T07:56:38.507Z,4.10
2018-09-12T07:59:14.853Z,4.50
2018-09-12T08:01:51.348Z,4.60
2018-09-12T08:04:27.758Z,4.50
2018-09-12T08:07:04.253Z,4.00
2018-09-12T08:09:40.730Z,3.70
2018-09-12T08:12:17.274Z,4.20
2018-09-12T08:14:53.654Z,3.60
2018-09-12T08:17:30.141Z,3.90
2018-09-12T08:20:07.052Z,3.73
2018-09-12T08:22:43.474Z,3.87
2018-09-12T08:25:19.962Z,4.27
2018-09-12T08:27:56.426Z,3.80
2018-09-12T08:30:32.818Z,3.07
2018-09-12T08:33:09.118Z,3.20
2018-09-12T08:35:45.796Z,2.63
2018-09-12T08:38:22.391Z,3.70
2018-09-12T08:41:02.996Z,3.13
2018-09-12T08:43:40.277Z,3.33
2018-09-12T08:46:16.727Z,3.60
2018-09-12T08:48:53.196Z,3.50
2018-09-12T08:51:29.642Z,3.30
2018-09-12T08:54:06.608Z,3.30
2018-09-12T08:56:45.123Z,3.60
2018-09-12T08:59:22.265Z,3.50
2018-09-12T09:01:58.741Z,2.77
2018-09-12T09:04:35.166Z,3.47
2018-09-12T09:07:11.529Z,3.10
2018-09-12T09:09:47.819Z,2.80
2018-09-12T09:12:24.352Z,3.33
2018-09-12T09:15:00.837Z,3.50
2018-09-12T09:17:37.296Z,2.80
2018-09-12T09:20:13.762Z,2.60
2018-09-12T09:22:50.226Z,3.37
2018-09-12T09:25:26.730Z,3.00
2018-09-12T09:28:03.182Z,2.67
2018-09-12T09:30:39.648Z,3.47
2018-09-12T09:33:16.061Z,2.60
2018-09-12T09:35:52.634Z,2.57
2018-09-12T09:38:28.949Z,2.80
2018-09-12T09:41:05.471Z,2.20
2018-09-12T09:43:41.879Z,2.30
2018-09-12T09:46:18.330Z,2.17
2018-09-12T09:48:54.758Z,2.83
2018-09-12T09:51:31.202Z,3.43
2018-09-12T09:54:07.652Z,3.20
2018-09-12T09:56:44.349Z,2.03
2018-09-12T09:59:21.307Z,2.33
2018-09-12T10:02:02.901Z,2.40
2018-09-12T10:04:44.653Z,2.40
2018-09-12T10:07:26.509Z,2.10
2018-09-12T10:10:04.675Z,3.13
2018-09-12T10:12:41.138Z,2.30
2018-09-12T10:15:17.645Z,2.55
2018-09-12T10:17:54.119Z,2.30
2018-09-12T10:20:30.654Z,2.30
2018-09-12T10:23:07.487Z,2.70
2018-09-12T10:25:43.811Z,2.70
2018-09-12T10:28:20.408Z,2.20
2018-09-12T10:30:56.822Z,2.43
2018-09-12T10:33:33.263Z,2.37
2018-09-12T10:36:09.703Z,2.80
2018-09-12T10:38:46.241Z,1.90
2018-09-12T10:41:22.793Z,2.10
2018-09-12T10:43:59.220Z,2.30
2018-09-12T10:46:35.683Z,2.07
2018-09-12T10:49:12.180Z,2.20
2018-09-12T10:51:49.275Z,2.50
2018-09-12T10:54:25.655Z,2.27
2018-09-12T10:57:02.295Z,2.70
2018-09-12T10:59:38.835Z,2.00
2018-09-12T11:02:16.529Z,2.63
2018-09-12T11:04:54.294Z,2.83
2018-09-12T11:07:30.608Z,2.27
2018-09-12T11:10:09.150Z,2.63
2018-09-12T11:12:46.833Z,2.43
2018-09-12T11:15:23.395Z,2.53
2018-09-12T11:17:59.989Z,2.60
2018-09-12T11:20:36.507Z,1.90
2018-09-12T11:23:12.855Z,3.23
2018-09-12T11:25:49.353Z,2.20
2018-09-12T11:28:25.789Z,2.67
2018-09-12T11:31:02.250Z,2.53
2018-09-12T11:33:38.656Z,2.83
2018-09-12T11:36:15.022Z,2.20
2018-09-12T11:38:51.320Z,3.03
2018-09-12T11:41:27.776Z,2.03
2018-09-12T11:44:04.293Z,2.57
2018-09-12T11:46:40.687Z,2.27
2018-09-12T11:49:17.197Z,1.97
2018-09-12T11:51:53.631Z,2.70
2018-09-12T11:54:30.213Z,2.27
2018-09-12T11:57:06.557Z,2.10
2018-09-12T11:59:43.081Z,2.00
2018-09-12T12:02:20.025Z,2.07
2018-09-12T12:04:56.191Z,1.80
2018-09-12T12:07:32.604Z,3.30
2018-09-12T12:10:09.047Z,2.47
2018-09-12T12:12:45.352Z,2.00
2018-09-12T12:15:22.967Z,1.93
2018-09-12T12:17:59.315Z,2.40
2018-09-12T12:20:35.878Z,2.50
2018-09-12T12:23:12.407Z,2.10
2018-09-12T12:25:48.789Z,1.80
2018-09-12T12:28:25.141Z,2.20
2018-09-12T12:31:01.586Z,2.23
2018-09-12T12:33:37.899Z,2.10
2018-09-12T12:36:14.372Z,2.40
2018-09-12T12:38:50.670Z,2.07
2018-09-12T12:41:27.056Z,1.90
2018-09-12T12:44:03.668Z,2.57
2018-09-12T12:46:40.094Z,2.20
2018-09-12T12:49:16.567Z,2.20
2018-09-12T12:51:52.854Z,1.87
2018-09-12T12:54:29.169Z,2.17
2018-09-12T12:57:05.613Z,2.30
2018-09-12T12:59:41.899Z,2.13
2018-09-12T13:02:18.382Z,1.63
2018-09-12T13:04:54.645Z,1.97
2018-09-12T13:07:30.966Z,2.10
2018-09-12T13:10:07.589Z,2.17
2018-09-12T13:12:44.090Z,1.80
2018-09-12T13:15:20.556Z,1.60
2018-09-12T13:17:56.950Z,1.80
2018-09-12T13:20:33.496Z,2.10
2018-09-12T13:23:09.862Z,2.17
2018-09-12T13:25:46.387Z,2.23
2018-09-12T13:28:22.708Z,2.50
2018-09-12T13:30:59.124Z,1.63
2018-09-12T13:33:35.583Z,1.80
2018-09-12T13:36:12.072Z,2.10
2018-09-12T13:38:48.684Z,2.03
2018-09-12T13:41:25.002Z,1.87
2018-09-12T13:44:01.412Z,1.63
2018-09-12T13:46:38.122Z,2.10
2018-09-12T13:49:14.459Z,1.97
2018-09-12T13:51:50.878Z,2.23
2018-09-12T13:54:27.263Z,2.27
2018-09-12T13:57:03.719Z,1.90
2018-09-12T13:59:40.109Z,2.20
2018-09-12T14:02:16.646Z,2.37
2018-09-12T14:04:53.083Z,2.40
2018-09-12T14:07:29.952Z,2.23
2018-09-12T14:10:07.364Z,2.00
2018-09-12T14:12:43.678Z,1.57
2018-09-12T14:15:20.043Z,1.60
2018-09-12T14:17:56.664Z,1.50
2018-09-12T14:20:33.119Z,2.13
2018-09-12T14:23:09.667Z,2.10
2018-09-12T14:25:46.137Z,1.97
2018-09-12T14:28:22.595Z,1.67
2018-09-12T14:30:58.975Z,1.87
2018-09-12T14:33:37.338Z,2.20
2018-09-12T14:36:13.755Z,1.70
2018-09-12T14:38:50.399Z,2.27
2018-09-12T14:41:26.685Z,1.73
2018-09-12T14:44:03.117Z,1.63
2018-09-12T14:46:39.488Z,1.80
2018-09-12T14:49:15.921Z,1.70
2018-09-12T14:51:52.287Z,2.07
2018-09-12T14:54:28.563Z,1.23
2018-09-12T14:57:05.032Z,1.67
2018-09-12T14:59:41.505Z,3.77
2018-09-12T15:02:17.992Z,1.67
2018-09-12T15:04:54.486Z,1.40
2018-09-12T15:07:30.820Z,1.23
2018-09-12T15:10:07.382Z,1.60
2018-09-12T15:12:43.902Z,1.30
2018-09-12T15:15:20.366Z,1.00
2018-09-12T15:17:56.859Z,1.20
2018-09-12T15:20:33.461Z,1.07
2018-09-12T15:23:09.798Z,1.20
2018-09-12T15:25:46.202Z,1.50
2018-09-12T15:28:22.636Z,1.20
2018-09-12T15:30:59.079Z,1.40
2018-09-12T15:33:35.573Z,1.13
2018-09-12T15:36:11.996Z,1.30
2018-09-12T15:38:48.388Z,1.07
2018-09-12T15:41:24.919Z,1.50
2018-09-12T15:44:01.366Z,1.07
2018-09-12T15:46:37.782Z,1.33
2018-09-12T15:49:14.247Z,1.40
2018-09-12T15:51:50.648Z,1.57
2018-09-12T15:54:27.082Z,2.87
2018-09-12T15:57:03.508Z,1.43
2018-09-12T15:59:39.949Z,1.90
2018-09-12T16:02:16.393Z,2.47
2018-09-12T16:04:52.902Z,1.87
2018-09-12T16:07:29.350Z,2.00
2018-09-12T16:10:06.079Z,1.90
2018-09-12T16:12:42.444Z,3.10
2018-09-12T16:15:19.007Z,1.17
2018-09-12T16:17:55.321Z,1.20
2018-09-12T16:20:31.973Z,1.23
2018-09-12T16:23:08.446Z,1.13
2018-09-12T16:25:45.097Z,1.20
2018-09-12T16:28:21.625Z,1.63
2018-09-12T16:30:58.277Z,1.60
2018-09-12T16:33:34.561Z,1.67
2018-09-12T16:36:11.003Z,1.47
2018-09-12T16:38:47.312Z,1.60
2018-09-12T16:41:23.995Z,1.57
2018-09-12T16:44:00.462Z,1.60
2018-09-12T16:46:36.973Z,1.30
2018-09-12T16:49:13.419Z,1.20
2018-09-12T16:51:49.874Z,2.00
2018-09-12T16:54:26.215Z,1.27
2018-09-12T16:57:02.651Z,1.50
2018-09-12T16:59:39.115Z,1.40
2018-09-12T17:02:15.560Z,1.40
2018-09-12T17:04:52.016Z,1.40
2018-09-12T17:07:28.485Z,1.63
2018-09-12T17:10:04.873Z,1.60
2018-09-12T17:12:41.345Z,1.80
2018-09-12T17:15:17.772Z,1.43
2018-09-12T17:17:54.139Z,1.33
2018-09-12T17:20:30.517Z,1.30
2018-09-12T17:23:06.995Z,2.30
2018-09-12T17:25:43.764Z,1.90
2018-09-12T17:28:20.159Z,1.50
2018-09-12T17:30:56.562Z,1.60
2018-09-12T17:33:32.985Z,2.20
2018-09-12T17:36:09.355Z,1.43
2018-09-12T17:38:45.843Z,1.30
2018-09-12T17:41:22.461Z,1.40
2018-09-12T17:43:58.740Z,1.37
2018-09-12T17:46:35.056Z,2.10
2018-09-12T17:49:11.467Z,1.80
2018-09-12T17:51:47.920Z,1.80
2018-09-12T17:54:24.658Z,1.70
2018-09-12T17:57:01.031Z,2.07
2018-09-12T17:59:37.486Z,3.40
2018-09-12T18:02:13.939Z,3.30
2018-09-12T18:04:50.239Z,2.80
2018-09-12T18:07:26.563Z,2.53
2018-09-12T18:10:03.384Z,2.10
2018-09-12T18:12:39.926Z,2.57
2018-09-12T18:15:16.409Z,2.40
2018-09-12T18:17:52.941Z,3.40
2018-09-12T18:20:29.499Z,2.37
2018-09-12T18:23:06.166Z,2.70
2018-09-12T18:25:42.554Z,2.37
2018-09-12T18:28:19.078Z,2.43
2018-09-12T18:30:55.320Z,2.90
2018-09-12T18:33:31.844Z,2.60
2018-09-12T18:36:08.711Z,2.87
2018-09-12T18:38:45.215Z,2.33
2018-09-12T18:41:21.564Z,3.00
2018-09-12T18:43:58.032Z,3.40
2018-09-12T18:46:34.424Z,3.80
2018-09-12T18:49:10.782Z,3.67
2018-09-12T18:51:47.206Z,3.47
2018-09-12T18:54:24.103Z,2.73
2018-09-12T18:57:00.513Z,2.10
2018-09-12T18:59:37.219Z,3.53
2018-09-12T19:02:13.495Z,3.00
2018-09-12T19:04:49.793Z,2.30
2018-09-12T19:07:26.204Z,2.53
2018-09-12T19:10:02.730Z,1.97
2018-09-12T19:12:39.039Z,2.27
2018-09-12T19:15:15.583Z,1.77
2018-09-12T19:17:51.900Z,2.20
2018-09-12T19:20:29.086Z,2.10
2018-09-12T19:23:05.576Z,2.00
2018-09-12T19:25:41.991Z,1.90
2018-09-12T19:28:18.524Z,1.90
2018-09-12T19:30:55.037Z,1.90
2018-09-12T19:33:31.536Z,2.23
2018-09-12T19:36:08.600Z,2.17
2018-09-12T19:38:45.123Z,2.20
2018-09-12T19:41:21.639Z,2.23
2018-09-12T19:43:58.115Z,2.07
2018-09-12T19:46:34.745Z,2.30
2018-09-12T19:49:12.024Z,2.03
2018-09-12T19:51:48.488Z,2.67
2018-09-12T19:54:25.091Z,3.80
2018-09-12T19:57:02.403Z,3.60
2018-09-12T19:59:39.536Z,3.87
2018-09-12T20:02:33.398Z,4.33
2018-09-12T20:05:10.296Z,4.40
2018-09-12T20:07:46.658Z,3.73
2018-09-12T20:10:23.628Z,4.13
2018-09-12T20:13:00.071Z,4.93
2018-09-12T20:15:36.634Z,4.47
2018-09-12T20:18:13.980Z,4.77
2018-09-12T20:20:53.523Z,5.27
2018-09-12T20:23:29.934Z,4.90
2018-09-12T20:26:06.306Z,5.17
2018-09-12T20:28:47.125Z,5.03
2018-09-12T20:31:25.180Z,4.70
2018-09-12T20:34:01.482Z,4.80
2018-09-12T20:36:38.057Z,6.07
2018-09-12T20:39:14.746Z,4.63
2018-09-12T20:41:51.163Z,6.03
2018-09-12T20:44:27.569Z,5.73
2018-09-12T20:47:03.956Z,6.00
2018-09-12T20:49:40.428Z,5.57
2018-09-12T20:52:16.834Z,5.90
2018-09-12T20:54:53.247Z,5.33
2018-09-12T20:57:29.761Z,6.70
2018-09-12T21:00:06.793Z,6.57
2018-09-12T21:02:45.230Z,7.63
2018-09-12T21:05:21.698Z,6.80
2018-09-12T21:07:58.103Z,7.80
2018-09-12T21:10:34.586Z,8.10
2018-09-12T21:13:11.043Z,7.67
2018-09-12T21:15:47.540Z,7.70
2018-09-12T21:18:24.027Z,7.80
2018-09-12T21:21:00.469Z,8.07
2018-09-12T21:23:36.968Z,7.30
2018-09-12T21:26:13.466Z,9.33
2018-09-12T21:28:49.979Z,8.37
2018-09-12T21:31:26.432Z,8.47
2018-09-12T21:34:02.871Z,9.10
2018-09-12T21:36:39.406Z,8.87
2018-09-12T21:39:15.820Z,8.30
2018-09-12T21:41:52.300Z,8.23
2018-09-12T21:44:28.785Z,9.13
2018-09-12T21:47:05.351Z,7.90
2018-09-12T21:49:41.795Z,9.50
2018-09-12T21:52:19.812Z,8.20
2018-09-12T21:54:57.285Z,8.27
2018-09-12T21:57:35.322Z,9.40
2018-09-12T22:00:11.956Z,8.53
2018-09-12T22:02:48.398Z,8.47
2018-09-12T22:05:24.870Z,7.90
2018-09-12T22:08:01.629Z,7.13
2018-09-12T22:10:38.237Z,7.47
2018-09-12T22:13:15.112Z,7.93
2018-09-12T22:15:51.615Z,8.03
2018-09-12T22:18:28.117Z,7.80
2018-09-12T22:21:04.564Z,7.80
2018-09-12T22:23:41.006Z,7.87
2018-09-12T22:26:17.486Z,7.03
2018-09-12T22:28:53.914Z,7.67
2018-09-12T22:31:30.619Z,7.50
2018-09-12T22:34:07.200Z,7.27
2018-09-12T22:36:43.632Z,6.97
2018-09-12T22:39:20.078Z,6.63
2018-09-12T22:41:56.485Z,6.97
2018-09-12T22:44:33.386Z,7.13
2018-09-12T22:47:09.922Z,6.17
2018-09-12T22:49:46.420Z,6.90
2018-09-12T22:52:22.702Z,6.70
2018-09-12T22:54:59.340Z,6.20
2018-09-12T22:57:35.896Z,7.17
2018-09-12T23:00:12.425Z,5.50
2018-09-12T23:02:48.851Z,5.70
2018-09-12T23:05:25.292Z,6.17
2018-09-12T23:08:01.750Z,5.97
2018-09-12T23:10:38.227Z,6.10
2018-09-12T23:13:14.728Z,6.10
2018-09-12T23:15:51.284Z,6.40
2018-09-12T23:18:27.733Z,6.87
2018-09-12T23:21:04.282Z,5.73
2018-09-12T23:23:40.713Z,6.47
2018-09-12T23:26:16.976Z,6.37
2018-09-12T23:28:53.446Z,5.53
2018-09-12T23:31:29.732Z,6.37
2018-09-12T23:34:06.435Z,6.10
2018-09-12T23:36:42.655Z,6.73
2018-09-12T23:39:19.189Z,6.00
2018-09-12T23:41:55.515Z,6.47
2018-09-12T23:44:31.975Z,5.80
2018-09-12T23:47:08.212Z,6.33
2018-09-12T23:49:44.721Z,5.97
2018-09-12T23:52:21.258Z,5.47
2018-09-12T23:54:57.667Z,5.50
2018-09-12T23:57:34.177Z,5.10
